createdAt,value
2018-10-17T00:00:26.711Z,18.63
2018-10-17T00:02:54.068Z,16.07
2018-10-17T00:05:21.419Z,14.77
2018-10-17T00:07:48.792Z,16.00
2018-10-17T00:10:16.154Z,15.40
2018-10-17T00:12:43.501Z,16.47
2018-10-17T00:15:11.038Z,16.63
2018-10-17T00:17:38.408Z,15.53
2018-10-17T00:20:06.685Z,15.00
2018-10-17T00:22:34.063Z,16.00
2018-10-17T00:25:01.480Z,16.73
2018-10-17T00:27:28.777Z,16.03
2018-10-17T00:29:56.288Z,15.10
2018-10-17T00:32:23.642Z,15.20
2018-10-17T00:34:51.117Z,15.40
2018-10-17T00:37:18.496Z,16.67
2018-10-17T00:39:46.044Z,17.93
2018-10-17T00:42:13.391Z,16.17
2018-10-17T00:44:40.904Z,16.13
2018-10-17T00:47:08.345Z,14.43
2018-10-17T00:49:35.688Z,15.67
2018-10-17T00:52:03.144Z,15.37
2018-10-17T00:54:30.459Z,15.87
2018-10-17T00:56:57.796Z,14.67
2018-10-17T00:59:25.199Z,14.67
2018-10-17T01:01:52.659Z,18.10
2018-10-17T01:04:20.039Z,15.50
2018-10-17T01:06:47.425Z,16.03
2018-10-17T01:09:15.490Z,15.40
2018-10-17T01:11:43.088Z,15.73
2018-10-17T01:14:10.613Z,16.23
2018-10-17T01:16:38.000Z,16.43
2018-10-17T01:19:05.682Z,14.53
2018-10-17T01:21:33.520Z,15.97
2018-10-17T01:24:01.256Z,15.47
2018-10-17T01:26:28.614Z,15.17
2018-10-17T01:28:56.033Z,15.53
2018-10-17T01:31:23.416Z,15.27
2018-10-17T01:33:50.982Z,15.80
2018-10-17T01:36:18.353Z,15.50
2018-10-17T01:38:45.780Z,14.60
2018-10-17T01:41:13.362Z,13.97
2018-10-17T01:43:40.627Z,15.00
2018-10-17T01:46:07.961Z,14.10
2018-10-17T01:48:35.308Z,15.63
2018-10-17T01:51:03.467Z,16.53
2018-10-17T01:53:30.880Z,16.00
2018-10-17T01:55:58.547Z,14.07
2018-10-17T01:58:25.982Z,15.00
2018-10-17T02:00:53.432Z,15.00
2018-10-17T02:03:20.860Z,14.33
2018-10-17T02:05:48.255Z,15.03
2018-10-17T02:08:15.582Z,14.53
2018-10-17T02:10:43.015Z,14.83
2018-10-17T02:13:10.509Z,14.73
2018-10-17T02:15:37.832Z,13.63
2018-10-17T02:18:05.160Z,14.57
2018-10-17T02:20:32.642Z,14.17
2018-10-17T02:23:00.002Z,15.80
2018-10-17T02:25:27.423Z,14.60
2018-10-17T02:27:54.909Z,16.03
2018-10-17T02:30:22.310Z,15.47
2018-10-17T02:32:49.663Z,15.17
2018-10-17T02:35:18.531Z,15.30
2018-10-17T02:37:46.317Z,15.40
2018-10-17T02:40:13.876Z,17.83
2018-10-17T02:42:41.381Z,15.63
2018-10-17T02:45:09.527Z,14.20
2018-10-17T02:47:37.166Z,15.63
2018-10-17T02:50:09.857Z,16.40
2018-10-17T02:52:39.692Z,14.63
2018-10-17T02:55:07.506Z,17.47
2018-10-17T02:57:35.178Z,14.03
2018-10-17T03:00:02.920Z,13.97
2018-10-17T03:02:30.353Z,14.43
2018-10-17T03:04:57.720Z,16.87
2018-10-17T03:07:25.084Z,15.60
2018-10-17T03:09:52.511Z,16.13
2018-10-17T03:12:19.875Z,16.10
2018-10-17T03:14:47.612Z,14.27
2018-10-17T03:17:15.131Z,14.53
2018-10-17T03:19:43.253Z,16.37
2018-10-17T03:22:10.588Z,16.30
2018-10-17T03:24:38.101Z,15.60
2018-10-17T03:27:05.486Z,17.00
2018-10-17T03:29:32.845Z,15.33
2018-10-17T03:32:00.274Z,15.60
2018-10-17T03:34:27.663Z,15.80
2018-10-17T03:36:55.041Z,17.13
2018-10-17T03:39:22.366Z,16.13
2018-10-17T03:41:49.921Z,17.23
2018-10-17T03:44:17.234Z,16.87
2018-10-17T03:46:44.569Z,16.50
2018-10-17T03:49:12.019Z,15.33
2018-10-17T03:51:39.231Z,15.77
2018-10-17T03:54:06.591Z,17.07
2018-10-17T03:56:34.018Z,16.20
2018-10-17T03:59:02.089Z,16.10
2018-10-17T04:01:29.343Z,16.27
2018-10-17T04:03:56.783Z,15.73
2018-10-17T04:06:24.126Z,17.97
2018-10-17T04:08:51.667Z,16.47
2018-10-17T04:11:19.016Z,16.83
2018-10-17T04:13:46.401Z,17.50
2018-10-17T04:16:13.737Z,15.63
2018-10-17T04:18:41.090Z,17.00
2018-10-17T04:21:08.493Z,17.87
2018-10-17T04:23:35.887Z,18.53
2018-10-17T04:26:03.207Z,14.43
2018-10-17T04:28:30.511Z,16.03
2018-10-17T04:30:57.811Z,14.73
2018-10-17T04:33:25.160Z,17.80
2018-10-17T04:35:52.581Z,17.07
2018-10-17T04:38:19.953Z,16.27
2018-10-17T04:40:47.322Z,15.90
2018-10-17T04:43:14.708Z,18.43
2018-10-17T04:45:41.967Z,18.03
2018-10-17T04:48:09.505Z,15.90
2018-10-17T04:50:36.801Z,18.77
2018-10-17T04:53:04.155Z,16.40
2018-10-17T04:55:31.490Z,18.50
2018-10-17T04:57:58.928Z,17.27
2018-10-17T05:00:26.306Z,18.97
2018-10-17T05:02:53.742Z,17.37
2018-10-17T05:05:21.086Z,19.13
2018-10-17T05:07:48.443Z,18.90
2018-10-17T05:10:15.800Z,19.97
2018-10-17T05:12:43.137Z,16.90
2018-10-17T05:15:10.554Z,17.23
2018-10-17T05:17:37.881Z,15.37
2018-10-17T05:20:06.613Z,14.37
2018-10-17T05:22:33.939Z,13.70
2018-10-17T05:25:01.476Z,17.83
2018-10-17T05:27:28.827Z,16.20
2018-10-17T05:29:56.473Z,15.27
2018-10-17T05:32:23.819Z,16.90
2018-10-17T05:34:51.290Z,17.70
2018-10-17T05:37:18.937Z,22.70
2018-10-17T05:39:46.171Z,19.53
2018-10-17T05:42:13.529Z,16.67
2018-10-17T05:44:40.942Z,16.87
2018-10-17T05:47:11.459Z,17.47
2018-10-17T05:49:38.808Z,18.63
2018-10-17T05:52:07.345Z,18.60
2018-10-17T05:54:34.675Z,15.57
2018-10-17T05:57:02.072Z,19.10
2018-10-17T05:59:29.899Z,15.87
2018-10-17T06:01:58.469Z,15.67
2018-10-17T06:04:25.770Z,18.97
2018-10-17T06:06:53.207Z,19.53
2018-10-17T06:09:20.516Z,20.90
2018-10-17T06:11:48.002Z,18.73
2018-10-17T06:14:16.075Z,16.57
2018-10-17T06:16:44.365Z,18.33
2018-10-17T06:19:12.710Z,16.37
2018-10-17T06:21:40.199Z,17.07
2018-10-17T06:24:07.836Z,18.47
2018-10-17T06:26:35.233Z,21.50
2018-10-17T06:29:02.654Z,19.97
2018-10-17T06:31:30.053Z,15.50
2018-10-17T06:33:57.572Z,17.37
2018-10-17T06:36:24.892Z,16.37
2018-10-17T06:38:52.318Z,17.30
2018-10-17T06:41:19.683Z,18.93
2018-10-17T06:43:47.211Z,16.50
2018-10-17T06:46:14.404Z,16.63
2018-10-17T06:48:41.725Z,18.43
2018-10-17T06:51:09.124Z,17.23
2018-10-17T06:53:36.425Z,20.30
2018-10-17T06:56:03.781Z,19.20
2018-10-17T06:58:31.126Z,22.60
2018-10-17T07:00:58.602Z,17.83
2018-10-17T07:03:26.025Z,15.90
2018-10-17T07:05:53.360Z,16.60
2018-10-17T07:08:20.763Z,17.47
2018-10-17T07:10:48.140Z,17.83
2018-10-17T07:13:15.845Z,22.60
2018-10-17T07:15:43.597Z,24.33
2018-10-17T07:18:10.818Z,24.97
2018-10-17T07:20:38.159Z,18.57
2018-10-17T07:23:05.575Z,15.93
2018-10-17T07:25:33.095Z,18.13
2018-10-17T07:28:00.475Z,17.07
2018-10-17T07:30:28.400Z,17.57
2018-10-17T07:32:55.820Z,17.10
2018-10-17T07:35:23.133Z,21.83
2018-10-17T07:37:50.559Z,19.83
2018-10-17T07:40:17.901Z,21.60
2018-10-17T07:42:45.380Z,19.80
2018-10-17T07:45:12.714Z,17.83
2018-10-17T07:47:40.044Z,15.90
2018-10-17T07:50:08.344Z,17.77
2018-10-17T07:52:35.646Z,16.93
2018-10-17T07:55:03.008Z,18.00
2018-10-17T07:57:30.391Z,16.67
2018-10-17T07:59:57.748Z,16.47
2018-10-17T08:02:25.096Z,18.70
2018-10-17T08:04:52.466Z,17.60
2018-10-17T08:07:19.790Z,17.20
2018-10-17T08:09:47.366Z,15.00
2018-10-17T08:12:14.760Z,17.90
2018-10-17T08:14:42.588Z,16.47
2018-10-17T08:17:10.551Z,18.53
2018-10-17T08:19:37.832Z,16.53
2018-10-17T08:22:05.292Z,17.30
2018-10-17T08:24:32.649Z,16.63
2018-10-17T08:27:00.010Z,16.53
2018-10-17T08:29:27.325Z,32.57
2018-10-17T08:31:54.709Z,16.30
2018-10-17T08:34:22.062Z,16.40
2018-10-17T08:36:49.668Z,15.50
2018-10-17T08:39:16.782Z,13.90
2018-10-17T08:41:44.206Z,14.07
2018-10-17T08:44:11.548Z,14.20
2018-10-17T08:46:38.923Z,15.27
2018-10-17T08:49:06.312Z,13.30
2018-10-17T08:51:33.699Z,16.97
2018-10-17T08:54:01.043Z,35.50
2018-10-17T08:56:28.355Z,17.37
2018-10-17T08:58:55.684Z,13.40
2018-10-17T09:01:23.025Z,14.80
2018-10-17T09:03:50.376Z,14.37
2018-10-17T09:06:17.967Z,15.10
2018-10-17T09:08:45.217Z,14.27
2018-10-17T09:11:12.600Z,13.57
2018-10-17T09:13:40.025Z,13.27
2018-10-17T09:16:07.566Z,14.83
2018-10-17T09:18:34.863Z,13.40
2018-10-17T09:21:02.904Z,12.70
2018-10-17T09:23:29.784Z,12.43
2018-10-17T09:25:57.090Z,12.50
2018-10-17T09:28:24.498Z,10.87
2018-10-17T09:30:51.822Z,12.20
2018-10-17T09:33:19.153Z,11.87
2018-10-17T09:35:46.591Z,11.13
2018-10-17T09:38:13.945Z,11.20
2018-10-17T09:40:41.610Z,11.50
2018-10-17T09:43:08.937Z,9.80
2018-10-17T09:45:36.233Z,10.23
2018-10-17T09:48:03.697Z,10.00
2018-10-17T09:50:31.047Z,10.30
2018-10-17T09:52:58.369Z,10.77
2018-10-17T09:55:25.683Z,10.77
2018-10-17T09:57:53.040Z,9.20
2018-10-17T10:00:25.722Z,8.37
2018-10-17T10:02:53.135Z,11.90
2018-10-17T10:05:20.784Z,9.43
2018-10-17T10:07:48.094Z,9.03
2018-10-17T10:10:16.129Z,9.80
2018-10-17T10:12:44.036Z,9.13
2018-10-17T10:15:11.376Z,9.97
2018-10-17T10:17:38.861Z,9.83
2018-10-17T10:20:06.170Z,10.70
2018-10-17T10:22:33.600Z,12.03
2018-10-17T10:25:01.031Z,13.50
2018-10-17T10:27:28.696Z,11.90
2018-10-17T10:29:56.129Z,10.40
2018-10-17T10:32:23.701Z,10.47
2018-10-17T10:34:51.031Z,10.77
2018-10-17T10:37:18.385Z,11.60
2018-10-17T10:39:45.761Z,11.43
2018-10-17T10:42:13.171Z,11.30
2018-10-17T10:44:40.465Z,12.23
2018-10-17T10:47:07.822Z,10.17
2018-10-17T10:49:35.141Z,10.53
2018-10-17T10:52:02.539Z,9.70
2018-10-17T10:54:29.860Z,10.97
2018-10-17T10:56:57.344Z,11.17
2018-10-17T10:59:24.769Z,14.07
2018-10-17T11:01:52.223Z,11.10
2018-10-17T11:04:19.591Z,10.63
2018-10-17T11:06:46.976Z,10.97
2018-10-17T11:09:14.306Z,12.33
2018-10-17T11:11:41.675Z,11.83
2018-10-17T11:14:09.174Z,12.50
2018-10-17T11:16:36.976Z,10.63
2018-10-17T11:19:04.323Z,12.40
2018-10-17T11:21:32.024Z,13.40
2018-10-17T11:23:59.385Z,12.10
2018-10-17T11:26:26.690Z,11.67
2018-10-17T11:28:54.078Z,13.70
2018-10-17T11:31:21.422Z,13.70
2018-10-17T11:33:48.827Z,16.40
2018-10-17T11:36:16.183Z,13.60
2018-10-17T11:38:43.520Z,14.93
2018-10-17T11:41:11.192Z,12.57
2018-10-17T11:43:38.415Z,13.30
2018-10-17T11:46:05.792Z,15.27
2018-10-17T11:48:33.124Z,12.77
2018-10-17T11:51:00.531Z,16.00
2018-10-17T11:53:27.970Z,14.33
2018-10-17T11:55:55.262Z,12.53
2018-10-17T11:58:22.627Z,13.80
2018-10-17T12:00:49.984Z,12.27
2018-10-17T12:03:17.365Z,12.70
2018-10-17T12:05:44.853Z,14.13
2018-10-17T12:08:11.961Z,12.60
2018-10-17T12:10:39.288Z,13.47
2018-10-17T12:13:06.717Z,13.23
2018-10-17T12:15:34.146Z,12.90
2018-10-17T12:18:01.563Z,12.97
2018-10-17T12:20:28.904Z,14.20
2018-10-17T12:22:56.233Z,13.33
2018-10-17T12:25:23.539Z,12.13
2018-10-17T12:27:50.941Z,10.27
2018-10-17T12:30:18.230Z,13.83
2018-10-17T12:32:45.574Z,11.70
2018-10-17T12:35:13.883Z,12.47
2018-10-17T12:37:41.158Z,12.70
2018-10-17T12:40:09.377Z,14.37
2018-10-17T12:42:36.663Z,12.03
2018-10-17T12:45:04.259Z,11.73
2018-10-17T12:47:31.578Z,13.10
2018-10-17T12:49:59.035Z,12.17
2018-10-17T12:52:26.388Z,14.67
2018-10-17T12:54:53.710Z,12.13
2018-10-17T12:57:21.092Z,11.90
2018-10-17T12:59:48.398Z,14.50
2018-10-17T13:02:15.734Z,11.80
2018-10-17T13:04:43.096Z,11.87
2018-10-17T13:07:10.506Z,13.83
2018-10-17T13:09:37.874Z,12.20
2018-10-17T13:12:05.222Z,13.37
2018-10-17T13:14:32.571Z,11.47
2018-10-17T13:16:59.984Z,10.43
2018-10-17T13:19:27.342Z,10.83
2018-10-17T13:21:54.644Z,11.20
2018-10-17T13:24:21.940Z,10.73
2018-10-17T13:26:49.313Z,10.37
2018-10-17T13:29:16.784Z,11.57
2018-10-17T13:31:44.022Z,12.60
2018-10-17T13:34:11.396Z,15.33
2018-10-17T13:36:38.985Z,10.83
2018-10-17T13:39:08.316Z,11.60
2018-10-17T13:41:35.954Z,11.77
2018-10-17T13:44:03.350Z,9.70
2018-10-17T13:46:30.698Z,9.97
2018-10-17T13:48:58.068Z,9.10
2018-10-17T13:51:25.332Z,9.70
2018-10-17T13:53:52.617Z,9.23
2018-10-17T13:56:19.977Z,10.23
2018-10-17T13:58:47.315Z,9.77
2018-10-17T14:01:14.751Z,9.40
2018-10-17T14:03:42.048Z,10.60
2018-10-17T14:06:09.497Z,10.80
2018-10-17T14:08:36.805Z,12.10
2018-10-17T14:11:04.120Z,10.73
2018-10-17T14:13:31.518Z,9.50
2018-10-17T14:15:58.792Z,9.10
2018-10-17T14:18:26.290Z,12.23
2018-10-17T14:20:53.650Z,9.90
2018-10-17T14:23:21.033Z,9.40
2018-10-17T14:25:48.267Z,8.77
2018-10-17T14:28:15.620Z,11.80
2018-10-17T14:30:42.964Z,9.57
2018-10-17T14:33:10.419Z,9.43
2018-10-17T14:35:37.786Z,10.63
2018-10-17T14:38:05.352Z,9.37
2018-10-17T14:40:32.635Z,9.10
2018-10-17T14:42:59.872Z,9.47
2018-10-17T14:45:27.190Z,9.10
2018-10-17T14:47:54.520Z,9.60
2018-10-17T14:50:21.832Z,8.90
2018-10-17T14:52:49.378Z,8.17
2018-10-17T14:55:16.729Z,10.80
2018-10-17T14:57:44.031Z,12.13
2018-10-17T15:00:13.214Z,9.80
2018-10-17T15:02:40.652Z,12.07
2018-10-17T15:05:08.673Z,12.07
2018-10-17T15:07:35.934Z,12.17
2018-10-17T15:10:03.402Z,12.63
2018-10-17T15:12:30.699Z,14.83
2018-10-17T15:14:58.115Z,15.07
2018-10-17T15:17:26.522Z,12.17
2018-10-17T15:19:53.847Z,12.50
2018-10-17T15:22:21.196Z,13.53
2018-10-17T15:24:48.596Z,12.63
2018-10-17T15:27:16.164Z,12.10
2018-10-17T15:29:43.407Z,11.23
2018-10-17T15:32:10.812Z,12.77
2018-10-17T15:34:38.251Z,13.37
2018-10-17T15:37:05.829Z,12.63
2018-10-17T15:39:33.032Z,17.60
2018-10-17T15:42:00.404Z,12.77
2018-10-17T15:44:27.817Z,14.70
2018-10-17T15:46:55.169Z,12.97
2018-10-17T15:49:22.530Z,13.60
2018-10-17T15:51:49.861Z,13.10
2018-10-17T15:54:17.319Z,13.27
2018-10-17T15:56:44.618Z,14.57
2018-10-17T15:59:11.941Z,13.30
2018-10-17T16:01:39.323Z,12.47
2018-10-17T16:04:06.646Z,12.20
2018-10-17T16:06:34.035Z,16.37
2018-10-17T16:09:01.768Z,15.80
2018-10-17T16:11:29.132Z,13.20
2018-10-17T16:13:56.941Z,13.57
2018-10-17T16:16:24.453Z,16.00
2018-10-17T16:18:51.867Z,15.03
2018-10-17T16:21:19.154Z,13.60
2018-10-17T16:23:46.523Z,18.37
2018-10-17T16:26:13.894Z,18.07
2018-10-17T16:28:41.621Z,15.63
2018-10-17T16:31:09.171Z,15.23
2018-10-17T16:33:36.454Z,15.97
2018-10-17T16:36:05.973Z,14.57
2018-10-17T16:38:33.339Z,17.97
2018-10-17T16:41:00.856Z,18.27
2018-10-17T16:43:28.093Z,18.33
2018-10-17T16:45:55.372Z,17.57
2018-10-17T16:48:23.010Z,19.47
2018-10-17T16:50:50.386Z,20.40
2018-10-17T16:53:17.733Z,18.53
2018-10-17T16:55:45.056Z,20.30
2018-10-17T16:58:12.490Z,20.73
2018-10-17T17:00:39.791Z,22.77
2018-10-17T17:03:07.222Z,21.17
2018-10-17T17:05:34.482Z,24.20
2018-10-17T17:08:01.874Z,20.23
2018-10-17T17:10:29.178Z,21.80
2018-10-17T17:12:56.542Z,19.60
2018-10-17T17:15:23.871Z,20.33
2018-10-17T17:17:51.187Z,18.97
2018-10-17T17:20:18.581Z,23.30
2018-10-17T17:22:46.041Z,19.77
2018-10-17T17:25:14.064Z,19.20
2018-10-17T17:27:41.730Z,19.60
2018-10-17T17:30:10.746Z,23.07
2018-10-17T17:32:38.003Z,25.97
2018-10-17T17:35:05.413Z,21.07
2018-10-17T17:37:32.774Z,21.47
2018-10-17T17:40:00.191Z,20.80
2018-10-17T17:42:27.490Z,25.30
2018-10-17T17:44:54.791Z,21.57
2018-10-17T17:47:22.186Z,22.03
2018-10-17T17:49:49.467Z,20.67
2018-10-17T17:52:16.845Z,22.17
2018-10-17T17:54:44.126Z,21.70
2018-10-17T17:57:11.523Z,19.40
2018-10-17T17:59:38.825Z,21.80
2018-10-17T18:02:06.203Z,20.67
2018-10-17T18:04:33.579Z,20.07
2018-10-17T18:07:00.959Z,20.73
2018-10-17T18:09:28.260Z,18.80
2018-10-17T18:11:55.625Z,18.70
2018-10-17T18:14:22.977Z,18.67
2018-10-17T18:16:50.205Z,19.40
2018-10-17T18:19:17.516Z,28.30
2018-10-17T18:21:44.827Z,22.87
2018-10-17T18:24:12.106Z,19.10
2018-10-17T18:26:39.405Z,25.30
2018-10-17T18:29:06.717Z,19.17
2018-10-17T18:31:34.052Z,22.03
2018-10-17T18:34:01.429Z,20.30
2018-10-17T18:36:28.758Z,20.93
2018-10-17T18:38:56.060Z,20.07
2018-10-17T18:41:23.368Z,18.97
2018-10-17T18:43:50.667Z,20.50
2018-10-17T18:46:18.107Z,22.77
2018-10-17T18:48:45.380Z,19.00
2018-10-17T18:51:12.761Z,22.27
2018-10-17T18:53:40.073Z,18.90
2018-10-17T18:56:07.628Z,20.40
2018-10-17T18:58:35.021Z,18.63
2018-10-17T19:01:02.395Z,19.20
2018-10-17T19:03:29.706Z,19.63
2018-10-17T19:05:57.075Z,21.13
2018-10-17T19:08:24.668Z,21.63
2018-10-17T19:10:51.971Z,21.50
2018-10-17T19:13:19.384Z,29.47
2018-10-17T19:15:46.887Z,21.73
2018-10-17T19:18:14.154Z,20.83
2018-10-17T19:20:41.509Z,20.10
2018-10-17T19:23:08.862Z,20.20
2018-10-17T19:25:36.203Z,19.80
2018-10-17T19:28:03.504Z,18.73
2018-10-17T19:30:30.833Z,19.47
2018-10-17T19:32:58.488Z,20.57
2018-10-17T19:35:25.759Z,18.97
2018-10-17T19:37:53.200Z,20.40
2018-10-17T19:40:20.624Z,18.13
2018-10-17T19:42:47.992Z,17.33
2018-10-17T19:45:15.493Z,18.43
2018-10-17T19:47:42.782Z,25.63
2018-10-17T19:50:10.117Z,19.80
2018-10-17T19:52:37.698Z,21.20
2018-10-17T19:55:05.651Z,17.50
2018-10-17T19:57:32.965Z,19.53
2018-10-17T20:00:00.247Z,18.77
2018-10-17T20:02:27.630Z,19.10
2018-10-17T20:04:54.932Z,18.53
2018-10-17T20:07:22.805Z,19.30
2018-10-17T20:09:50.092Z,18.40
2018-10-17T20:12:17.496Z,22.50
2018-10-17T20:14:44.811Z,20.37
2018-10-17T20:17:12.102Z,19.43
2018-10-17T20:19:39.686Z,19.47
2018-10-17T20:22:07.473Z,22.40
2018-10-17T20:24:34.788Z,19.47
2018-10-17T20:27:02.095Z,18.70
2018-10-17T20:29:29.574Z,19.07
2018-10-17T20:31:56.888Z,21.30
2018-10-17T20:34:24.428Z,19.60
2018-10-17T20:36:52.089Z,19.67
2018-10-17T20:39:19.494Z,20.10
2018-10-17T20:41:46.941Z,18.33
2018-10-17T20:44:14.388Z,21.57
2018-10-17T20:46:41.667Z,18.50
2018-10-17T20:49:09.727Z,20.10
2018-10-17T20:51:37.140Z,21.80
2018-10-17T20:54:04.742Z,19.50
2018-10-17T20:56:32.106Z,18.90
2018-10-17T20:58:59.451Z,19.70
2018-10-17T21:01:26.864Z,20.97
2018-10-17T21:03:54.250Z,24.17
2018-10-17T21:06:21.619Z,20.10
2018-10-17T21:08:49.032Z,19.97
2018-10-17T21:11:16.337Z,20.60
2018-10-17T21:13:43.658Z,18.80
2018-10-17T21:16:11.016Z,17.63
2018-10-17T21:18:38.495Z,20.23
2018-10-17T21:21:05.839Z,18.37
2018-10-17T21:23:33.161Z,16.87
2018-10-17T21:26:00.481Z,17.23
2018-10-17T21:28:27.775Z,19.93
2018-10-17T21:30:55.182Z,19.03
2018-10-17T21:33:22.544Z,18.43
2018-10-17T21:35:49.858Z,19.30
2018-10-17T21:38:17.365Z,16.47
2018-10-17T21:40:44.651Z,17.17
2018-10-17T21:43:12.058Z,17.97
2018-10-17T21:45:39.434Z,19.63
2018-10-17T21:48:06.864Z,16.60
2018-10-17T21:50:34.314Z,17.03
2018-10-17T21:53:01.703Z,18.10
2018-10-17T21:55:29.068Z,18.53
2018-10-17T21:57:56.415Z,19.90
2018-10-17T22:00:23.796Z,17.57
2018-10-17T22:02:51.143Z,20.47
2018-10-17T22:05:18.463Z,16.70
2018-10-17T22:07:45.813Z,17.63
2018-10-17T22:10:13.154Z,15.87
2018-10-17T22:12:40.654Z,16.93
2018-10-17T22:15:08.839Z,17.63
2018-10-17T22:17:36.154Z,17.20
2018-10-17T22:20:03.527Z,17.67
2018-10-17T22:22:30.837Z,17.20
2018-10-17T22:24:58.405Z,18.57
2018-10-17T22:27:25.769Z,17.07
2018-10-17T22:29:53.265Z,16.27
2018-10-17T22:32:20.589Z,18.80
2018-10-17T22:34:47.918Z,16.30
2018-10-17T22:37:15.245Z,16.83
2018-10-17T22:39:42.610Z,18.20
2018-10-17T22:42:09.967Z,16.63
2018-10-17T22:44:37.604Z,17.40
2018-10-17T22:47:05.431Z,16.03
2018-10-17T22:49:32.715Z,18.70
2018-10-17T22:52:00.056Z,17.17
2018-10-17T22:54:27.322Z,16.53
2018-10-17T22:56:54.607Z,17.17
2018-10-17T22:59:21.925Z,19.33
2018-10-17T23:01:49.338Z,17.60
2018-10-17T23:04:16.631Z,15.47
2018-10-17T23:06:43.909Z,17.53
2018-10-17T23:09:13.607Z,15.70
2018-10-17T23:11:42.035Z,18.63
2018-10-17T23:14:09.997Z,18.27
2018-10-17T23:16:37.376Z,18.73
2018-10-17T23:19:05.181Z,15.87
2018-10-17T23:21:32.452Z,18.07
2018-10-17T23:23:59.817Z,16.97
2018-10-17T23:26:27.093Z,17.90
2018-10-17T23:28:54.390Z,16.50
2018-10-17T23:31:24.191Z,19.03
2018-10-17T23:33:51.646Z,17.30
2018-10-17T23:36:18.915Z,18.83
2018-10-17T23:38:46.260Z,16.50
2018-10-17T23:41:13.544Z,20.93
2018-10-17T23:43:40.847Z,20.17
2018-10-17T23:46:08.113Z,17.97
2018-10-17T23:48:35.444Z,19.43
2018-10-17T23:51:02.781Z,17.87
2018-10-17T23:53:30.039Z,17.03
2018-10-17T23:55:57.337Z,17.03
2018-10-17T23:58:24.692Z,18.20
